Time;durP1;ratioP1;P1;durP2;ratioP2;P2;SDS_P1;SDS_P2;PMS_P1;PMS_P2;Temp;Humidity;BMP_temperature;BMP_pressure;BME280_temperature;BME280_humidity;BME280_pressure;Samples;Min_cycle;Max_cycle;Signal;HPM_P1;HPM_P2
2022/06/16 00:00:46;;;;;;;4.30;2.30;;;;;;;13.00;100.00;101311.69;5028366;28;20480;-88
2022/06/16 00:03:19;;;;;;;4.90;2.70;;;;;;;12.95;100.00;101307.06;5033236;28;21135;-88
2022/06/16 00:05:49;;;;;;;4.63;2.60;;;;;;;12.72;100.00;101292.97;5026510;28;20435;-87
2022/06/16 00:08:22;;;;;;;5.40;2.83;;;;;;;12.50;100.00;101287.03;5029153;28;20871;-88
2022/06/16 00:13:41;;;;;;;6.65;2.75;;;;;;;12.62;100.00;101292.19;5026298;28;20451;-86
2022/06/16 00:16:14;;;;;;;5.43;2.70;;;;;;;12.66;100.00;101285.06;5029364;28;20434;-89
2022/06/16 00:18:42;;;;;;;6.20;2.63;;;;;;;12.78;100.00;101296.47;5037127;28;21070;-88
2022/06/16 00:21:13;;;;;;;6.03;2.30;;;;;;;12.83;100.00;101298.38;5029317;28;21356;-86
2022/06/16 00:23:46;;;;;;;5.50;2.80;;;;;;;12.70;100.00;101300.59;5029012;28;20426;-88
2022/06/16 00:26:17;;;;;;;5.55;2.80;;;;;;;12.71;100.00;101302.25;5028517;28;20423;-87
2022/06/16 00:28:46;;;;;;;5.53;2.70;;;;;;;12.38;100.00;101298.25;5027556;28;20422;-87
2022/06/16 00:31:17;;;;;;;5.82;2.70;;;;;;;12.52;100.00;101288.38;5034894;28;20427;-89
2022/06/16 00:33:46;;;;;;;7.00;2.80;;;;;;;12.54;100.00;101299.84;5030407;28;20438;-88
2022/06/16 00:36:21;;;;;;;5.47;2.80;;;;;;;12.61;100.00;101285.91;5031192;28;20907;-87
2022/06/16 00:38:54;;;;;;;6.20;3.10;;;;;;;12.54;100.00;101279.91;5028641;28;20434;-88
2022/06/16 00:41:22;;;;;;;6.32;3.15;;;;;;;12.53;100.00;101264.63;5028850;28;20430;-87
2022/06/16 00:43:51;;;;;;;5.18;3.05;;;;;;;12.65;100.00;101277.94;5029109;28;20432;-88
2022/06/16 00:46:25;;;;;;;5.53;3.10;;;;;;;12.67;100.00;101284.78;5036332;28;20411;-87
2022/06/16 00:49:01;;;;;;;6.75;3.00;;;;;;;12.66;100.00;101279.59;5028288;28;20427;-86
2022/06/16 00:51:40;;;;;;;5.38;3.00;;;;;;;12.42;100.00;101256.47;5025053;28;20437;-86
2022/06/16 00:54:15;;;;;;;5.72;3.28;;;;;;;12.45;100.00;101270.66;5028827;28;20537;-88
2022/06/16 00:56:43;;;;;;;6.20;3.30;;;;;;;12.41;100.00;101273.97;5028708;28;20426;-88
2022/06/16 00:59:17;;;;;;;5.88;3.22;;;;;;;12.44;100.00;101279.94;5030033;28;20432;-87
2022/06/16 01:01:46;;;;;;;8.85;3.45;;;;;;;12.39;100.00;101283.53;5033001;28;20430;-88
2022/06/16 01:07:13;;;;;;;6.63;3.50;;;;;;;11.83;100.00;101254.38;5028181;28;20426;-86
2022/06/16 01:09:46;;;;;;;7.07;3.88;;;;;;;11.85;100.00;101266.66;5035555;28;20423;-87
2022/06/16 01:15:36;;;;;;;8.52;3.80;;;;;;;12.05;100.00;101271.28;5027546;28;20926;-89
2022/06/16 01:18:18;;;;;;;6.63;3.42;;;;;;;11.98;100.00;101242.69;5026330;28;20441;-89
2022/06/16 01:20:53;;;;;;;7.63;3.83;;;;;;;12.03;100.00;101280.88;5029066;28;20791;-88
2022/06/16 01:24:05;;;;;;;6.65;4.07;;;;;;;11.78;100.00;101281.66;5035007;28;20419;-90
2022/06/16 01:27:03;;;;;;;7.15;3.70;;;;;;;11.90;100.00;101276.75;5030296;28;20414;-89
2022/06/16 01:29:40;;;;;;;8.75;4.13;;;;;;;12.03;100.00;101278.13;5027373;28;20426;-86
2022/06/16 01:32:20;;;;;;;7.97;3.90;;;;;;;11.90;100.00;101250.31;5026113;28;20427;-87
2022/06/16 01:35:01;;;;;;;6.72;4.05;;;;;;;12.10;100.00;101269.66;5031312;28;20427;-85
2022/06/16 01:37:43;;;;;;;7.20;4.03;;;;;;;12.19;100.00;101268.84;5036854;28;20427;-89
2022/06/16 01:40:20;;;;;;;6.68;3.90;;;;;;;12.01;100.00;101233.94;5029359;28;20430;-89
2022/06/16 01:42:58;;;;;;;7.07;3.70;;;;;;;12.24;100.00;101266.06;5026383;28;20431;-89
2022/06/16 01:45:34;;;;;;;7.78;3.80;;;;;;;12.23;100.00;101274.53;5022326;28;20422;-88
2022/06/16 01:48:15;;;;;;;9.77;4.40;;;;;;;12.17;100.00;101284.66;5026049;28;20430;-87
2022/06/16 01:50:54;;;;;;;8.80;4.20;;;;;;;12.15;100.00;101275.94;5025963;28;20431;-88
2022/06/16 01:53:27;;;;;;;7.30;4.20;;;;;;;11.96;100.00;101245.69;5021362;28;21249;-89
2022/06/16 01:56:12;;;;;;;7.28;4.00;;;;;;;12.13;100.00;101271.84;5023029;28;20423;-90
2022/06/16 01:58:44;;;;;;;9.10;4.22;;;;;;;12.03;100.00;101270.75;5024026;28;20418;-89
2022/06/16 02:01:18;;;;;;;7.97;4.10;;;;;;;11.99;100.00;101260.69;5026138;28;20423;-88
2022/06/16 02:03:56;;;;;;;8.18;4.10;;;;;;;11.91;100.00;101243.72;5028548;28;20411;-88
2022/06/16 02:06:33;;;;;;;7.63;4.33;;;;;;;11.97;100.00;101271.84;5027859;28;20433;-89
2022/06/16 02:09:10;;;;;;;8.33;4.43;;;;;;;11.91;100.00;101260.09;5027573;28;20427;-88
2022/06/16 02:11:46;;;;;;;8.05;4.20;;;;;;;11.55;100.00;101251.94;5039545;28;20442;-89
2022/06/16 02:14:32;;;;;;;8.40;4.28;;;;;;;11.64;100.00;101262.28;5036131;28;20441;-88
2022/06/16 02:17:11;;;;;;;11.93;4.55;;;;;;;11.66;100.00;101263.66;5026817;28;20873;-89
2022/06/16 02:19:44;;;;;;;8.75;4.30;;;;;;;11.55;100.00;101248.41;5023217;28;20426;-88
2022/06/16 02:22:13;;;;;;;7.72;4.28;;;;;;;11.56;100.00;101239.13;5025086;28;20446;-89
2022/06/16 02:24:49;;;;;;;8.70;4.10;;;;;;;11.74;100.00;101232.31;5027022;28;20482;-88
2022/06/16 02:27:17;;;;;;;8.40;4.35;;;;;;;11.72;100.00;101237.22;5025247;28;20426;-90
2022/06/16 02:29:45;;;;;;;8.45;4.53;;;;;;;11.64;100.00;101226.84;5036417;28;20425;-89
2022/06/16 02:32:31;;;;;;;8.23;4.90;;;;;;;11.49;100.00;101242.13;5035571;28;20428;-88
2022/06/16 02:35:16;;;;;;;8.75;4.40;;;;;;;11.35;100.00;101246.47;5031646;28;20427;-89
2022/06/16 02:38:01;;;;;;;7.77;4.60;;;;;;;11.30;100.00;101232.88;5014110;28;20438;-89
2022/06/16 02:40:45;;;;;;;7.90;4.60;;;;;;;11.64;100.00;101241.31;5021137;28;20452;-88
2022/06/16 02:43:30;;;;;;;9.15;4.90;;;;;;;11.79;100.00;101242.38;5030866;28;20434;-89
2022/06/16 02:46:06;;;;;;;8.30;4.50;;;;;;;11.88;100.00;101240.75;5024117;28;20427;-88
2022/06/16 02:48:45;;;;;;;9.07;4.60;;;;;;;11.94;100.00;101244.28;5031490;28;20429;-88
2022/06/16 02:51:29;;;;;;;7.38;4.22;;;;;;;11.86;100.00;101240.19;5021107;28;20436;-89
2022/06/16 02:54:10;;;;;;;6.57;4.20;;;;;;;11.79;100.00;101239.66;5034578;28;20671;-88
2022/06/16 02:56:51;;;;;;;8.87;4.40;;;;;;;11.74;100.00;101243.22;5018653;28;20780;-88
2022/06/16 02:59:29;;;;;;;7.53;4.35;;;;;;;11.76;100.00;101241.03;5032077;28;20466;-88
2022/06/16 03:02:02;;;;;;;8.95;4.50;;;;;;;11.76;100.00;101251.94;5020364;28;20426;-88
2022/06/16 03:04:41;;;;;;;9.13;4.53;;;;;;;11.85;100.00;101253.03;5023663;28;20412;-88
2022/06/16 03:07:17;;;;;;;6.82;4.15;;;;;;;11.89;100.00;101258.72;5023892;28;20440;-88
2022/06/16 03:09:46;;;;;;;7.70;4.22;;;;;;;11.83;100.00;101266.09;5021861;28;20420;-88
2022/06/16 03:12:15;;;;;;;6.95;4.13;;;;;;;11.77;100.00;101269.94;5033143;28;20427;-88
2022/06/16 03:14:48;;;;;;;8.38;4.57;;;;;;;11.70;100.00;101267.47;5024508;28;20428;-88
2022/06/16 03:17:26;;;;;;;8.52;4.50;;;;;;;11.67;100.00;101261.75;5027345;28;20430;-88
2022/06/16 03:20:01;;;;;;;7.55;4.20;;;;;;;11.62;100.00;101254.38;5024267;28;20780;-88
2022/06/16 03:22:34;;;;;;;9.07;4.27;;;;;;;11.64;100.00;101270.47;5046951;28;20830;-88
2022/06/16 03:25:03;;;;;;;7.45;4.10;;;;;;;11.67;100.00;101280.81;5024495;28;20430;-89
2022/06/16 03:27:31;;;;;;;7.60;4.20;;;;;;;11.61;100.00;101276.47;5029091;28;20457;-87
2022/06/16 03:30:06;;;;;;;7.60;4.30;;;;;;;11.55;100.00;101292.00;5023715;28;20432;-88
2022/06/16 03:32:39;;;;;;;8.15;3.80;;;;;;;11.67;100.00;101278.94;5028742;28;20430;-89
2022/06/16 03:35:14;;;;;;;8.98;3.90;;;;;;;11.53;100.00;101280.56;5029314;28;21244;-88
2022/06/16 03:37:42;;;;;;;6.80;3.72;;;;;;;11.60;100.00;101272.94;5024669;28;21234;-89
2022/06/16 03:40:13;;;;;;;6.90;3.80;;;;;;;11.69;100.00;101282.19;5023460;28;20413;-88
2022/06/16 03:42:42;;;;;;;6.22;3.53;;;;;;;11.69;100.00;101276.75;5029568;28;20427;-88
2022/06/16 03:45:11;;;;;;;7.00;3.57;;;;;;;11.68;100.00;101285.19;5035820;28;20438;-88
2022/06/16 03:47:39;;;;;;;6.07;3.55;;;;;;;11.77;100.00;101278.13;5029743;28;20411;-88
2022/06/16 03:50:17;;;;;;;5.85;3.30;;;;;;;11.81;100.00;101283.84;5025607;28;20415;-88
2022/06/16 03:52:46;;;;;;;7.32;3.60;;;;;;;11.74;100.00;101275.94;5028640;28;20434;-88
2022/06/16 03:55:20;;;;;;;7.43;3.35;;;;;;;11.90;100.00;101290.38;5036705;28;20438;-88
2022/06/16 03:57:54;;;;;;;6.43;3.23;;;;;;;11.90;100.00;101282.19;5028582;28;20418;-86
2022/06/16 04:00:30;;;;;;;5.75;3.22;;;;;;;11.88;100.00;101281.66;5028147;28;20415;-88
2022/06/16 04:06:00;;;;;;;8.02;3.35;;;;;;;11.87;100.00;101288.19;5041196;28;20419;-87
2022/06/16 04:08:34;;;;;;;5.28;3.00;;;;;;;11.88;100.00;101296.09;5033829;28;20914;-89
2022/06/16 04:11:26;;;;;;;6.25;3.10;;;;;;;11.91;100.00;101300.19;5029422;28;20411;-87
2022/06/16 04:13:51;;;;;;;7.35;3.20;;;;;;;11.85;100.00;101277.56;5032466;28;20432;-88
2022/06/16 04:16:20;;;;;;;6.33;2.90;;;;;;;12.01;100.00;101293.94;5039420;28;20426;-88
2022/06/16 04:18:49;;;;;;;6.00;3.20;;;;;;;12.00;100.00;101298.59;5029225;28;20446;-86
2022/06/16 04:21:25;;;;;;;6.07;3.20;;;;;;;12.10;100.00;101305.09;5023748;28;20422;-87
2022/06/16 04:24:15;;;;;;;6.47;3.20;;;;;;;12.14;100.00;101304.31;5034290;28;20879;-88
2022/06/16 04:26:47;;;;;;;6.07;3.10;;;;;;;12.20;100.00;101310.56;5026308;28;20449;-87
2022/06/16 04:29:21;;;;;;;6.10;3.17;;;;;;;12.23;100.00;101304.56;5039928;28;20411;-88
2022/06/16 04:31:49;;;;;;;5.70;2.85;;;;;;;12.23;100.00;101307.28;5025655;28;20434;-89
2022/06/16 04:34:18;;;;;;;6.07;2.88;;;;;;;12.29;100.00;101308.94;5029601;28;20427;-88
2022/06/16 04:36:55;;;;;;;6.60;2.88;;;;;;;12.44;100.00;101313.50;5031785;28;20431;-87
2022/06/16 04:39:31;;;;;;;8.02;2.90;;;;;;;12.51;100.00;101313.22;5036527;28;20434;-88
2022/06/16 04:42:00;;;;;;;6.00;2.50;;;;;;;12.55;100.00;101312.41;5037355;28;20425;-87
2022/06/16 04:44:28;;;;;;;6.00;2.60;;;;;;;12.54;100.00;101320.84;5036570;28;20533;-88
2022/06/16 04:46:58;;;;;;;6.80;2.88;;;;;;;12.53;100.00;101325.50;5028947;28;20775;-87
2022/06/16 04:49:28;;;;;;;6.07;2.60;;;;;;;12.63;100.00;101323.84;5028274;28;20426;-86
2022/06/16 04:52:03;;;;;;;5.13;2.50;;;;;;;12.68;100.00;101327.38;5034534;28;20496;-87
2022/06/16 04:54:38;;;;;;;6.15;2.60;;;;;;;12.72;100.00;101330.38;5029041;28;20414;-86
2022/06/16 04:57:38;;;;;;;5.22;2.50;;;;;;;12.68;100.00;101332.03;5028099;28;20411;-87
2022/06/16 05:00:18;;;;;;;4.57;2.30;;;;;;;12.66;100.00;101326.03;5036192;28;20423;-87
2022/06/16 05:03:01;;;;;;;5.07;2.65;;;;;;;12.77;100.00;101333.06;5028917;28;21096;-87
2022/06/16 05:05:49;;;;;;;4.65;2.47;;;;;;;12.74;100.00;101334.44;5023598;28;20427;-88
2022/06/16 05:08:36;;;;;;;5.20;2.53;;;;;;;12.73;100.00;101327.38;5029759;28;20431;-87
2022/06/16 05:11:23;;;;;;;5.07;2.53;;;;;;;12.76;100.00;101336.94;5028518;28;20411;-87
2022/06/16 05:14:15;;;;;;;5.25;2.33;;;;;;;12.59;100.00;101294.38;5030960;28;20787;-88
2022/06/16 05:17:02;;;;;;;4.53;2.45;;;;;;;12.86;100.00;101336.06;5029496;28;20434;-87
2022/06/16 05:19:53;;;;;;;4.47;2.30;;;;;;;12.91;100.00;101341.50;5027952;28;20430;-87
2022/06/16 05:22:45;;;;;;;6.00;2.22;;;;;;;13.01;100.00;101346.94;5035235;28;20896;-89
2022/06/16 05:25:56;;;;;;;4.22;2.00;;;;;;;13.02;100.00;101342.28;5018942;28;20442;-89
2022/06/16 05:28:45;;;;;;;4.15;2.20;;;;;;;13.04;100.00;101343.63;5022541;28;20426;-88
2022/06/16 05:31:30;;;;;;;6.78;2.58;;;;;;;13.20;100.00;101360.78;5032512;28;20427;-87
2022/06/16 05:34:21;;;;;;;5.00;2.20;;;;;;;13.27;100.00;101363.19;5026983;28;20435;-87
2022/06/16 05:37:10;;;;;;;6.78;2.17;;;;;;;13.32;100.00;101359.63;5018909;28;20433;-87
2022/06/16 05:40:13;;;;;;;4.63;2.30;;;;;;;13.34;100.00;101360.16;5031043;28;20424;-88
2022/06/16 05:43:01;;;;;;;4.22;2.00;;;;;;;13.43;100.00;101366.69;5028072;28;20411;-88
2022/06/16 05:45:53;;;;;;;4.30;2.05;;;;;;;13.51;100.00;101376.22;5026686;28;20403;-87
2022/06/16 05:48:42;;;;;;;4.72;2.00;;;;;;;13.45;100.00;101361.78;5025497;28;20935;-88
2022/06/16 05:51:17;;;;;;;4.55;2.20;;;;;;;13.56;100.00;101378.91;5023900;28;21128;-88
2022/06/16 05:54:00;;;;;;;4.28;2.10;;;;;;;13.57;100.00;101377.81;5019030;28;20436;-88
2022/06/16 05:56:33;;;;;;;3.80;2.05;;;;;;;13.61;100.00;101378.91;5021923;28;21261;-86
2022/06/16 05:59:03;;;;;;;4.05;2.10;;;;;;;13.54;100.00;101375.66;5024225;28;20415;-85
2022/06/16 06:01:37;;;;;;;4.40;2.20;;;;;;;13.63;100.00;101384.06;5033658;28;20706;-87
2022/06/16 06:04:12;;;;;;;6.60;2.50;;;;;;;13.65;100.00;101377.22;5034859;28;20434;-87
2022/06/16 06:06:45;;;;;;;4.37;2.10;;;;;;;13.72;100.00;101374.19;5023725;28;20434;-88
2022/06/16 06:17:49;;;;;;;4.43;2.10;;;;;;;13.83;100.00;101385.88;5020575;28;20419;-88
2022/06/16 06:20:18;;;;;;;6.40;2.28;;;;;;;13.56;100.00;101346.09;5017208;28;20424;-90
2022/06/16 06:22:49;;;;;;;3.95;2.05;;;;;;;13.80;100.00;101379.06;5022292;28;20792;-89
2022/06/16 06:25:18;;;;;;;3.55;2.10;;;;;;;14.03;100.00;101380.25;5023125;28;20431;-84
2022/06/16 06:27:52;;;;;;;5.22;2.28;;;;;;;14.26;100.00;101380.59;5018661;28;20414;-91
2022/06/16 06:30:26;;;;;;;2.87;1.97;;;;;;;14.16;100.00;101383.44;5019067;28;20419;-88
2022/06/16 06:33:04;;;;;;;4.60;2.20;;;;;;;14.15;100.00;101379.06;5022048;28;20418;-86
2022/06/16 06:35:38;;;;;;;4.63;2.10;;;;;;;14.32;100.00;101379.47;5029259;28;20419;-87
2022/06/16 06:38:11;;;;;;;5.80;2.40;;;;;;;14.12;100.00;101350.34;5025791;28;20431;-87
2022/06/16 06:40:40;;;;;;;5.25;2.15;;;;;;;14.61;100.00;101386.81;5026474;28;20795;-88
2022/06/16 06:43:13;;;;;;;3.97;1.90;;;;;;;14.37;100.00;101381.31;5026376;28;20871;-90
2022/06/16 06:45:48;;;;;;;5.55;1.98;;;;;;;14.26;100.00;101391.53;5024102;28;21444;-90
2022/06/16 06:48:21;;;;;;;6.72;2.13;;;;;;;14.29;100.00;101397.28;5026759;28;20787;-87
2022/06/16 06:50:49;;;;;;;4.07;1.90;;;;;;;14.07;100.00;101377.75;5035613;28;20425;-88
2022/06/16 06:53:18;;;;;;;6.72;2.08;;;;;;;14.29;100.00;101410.13;5024722;28;20453;-86
2022/06/16 06:55:51;;;;;;;3.50;2.10;;;;;;;14.59;100.00;101411.75;5022593;28;20430;-86
2022/06/16 06:58:24;;;;;;;3.53;1.90;;;;;;;14.79;100.00;101412.72;5020799;28;20428;-87
2022/06/16 07:00:54;;;;;;;5.40;2.00;;;;;;;15.03;100.00;101400.94;5022504;28;20546;-87
2022/06/16 07:03:28;;;;;;;3.40;1.73;;;;;;;15.33;100.00;101410.72;5020868;28;20432;-88
2022/06/16 07:05:59;;;;;;;3.67;1.95;;;;;;;15.60;100.00;101415.53;5024060;28;20444;-88
2022/06/16 07:08:27;;;;;;;3.35;1.90;;;;;;;15.68;100.00;101414.06;5021675;28;20439;-85
2022/06/16 07:11:01;;;;;;;2.78;1.77;;;;;;;15.66;100.00;101416.31;5024095;28;20425;-88
2022/06/16 07:13:34;;;;;;;4.70;1.80;;;;;;;15.63;100.00;101379.31;5025635;28;20415;-88
2022/06/16 07:16:05;;;;;;;5.97;1.95;;;;;;;16.18;100.00;101418.28;5014403;28;21367;-87
2022/06/16 07:18:33;;;;;;;4.93;1.87;;;;;;;16.33;100.00;101426.28;5005691;28;20436;-87
2022/06/16 07:21:02;;;;;;;4.03;1.85;;;;;;;16.14;100.00;101415.31;5003507;28;20435;-86
2022/06/16 07:23:35;;;;;;;3.83;1.70;;;;;;;16.54;100.00;101423.97;5012790;28;21063;-87
2022/06/16 07:26:09;;;;;;;3.97;1.70;;;;;;;16.15;100.00;101417.75;5014990;28;20418;-90
2022/06/16 07:28:42;;;;;;;4.88;1.80;;;;;;;16.22;100.00;101411.88;5004435;28;20465;-87
2022/06/16 07:31:12;;;;;;;3.53;1.80;;;;;;;15.95;100.00;101418.91;5003671;28;21108;-88
2022/06/16 07:33:45;;;;;;;4.70;1.60;;;;;;;16.29;100.00;101419.75;5002778;28;20796;-87
2022/06/16 07:36:18;;;;;;;2.95;1.73;;;;;;;16.26;100.00;101423.91;5007449;28;20431;-85
2022/06/16 07:38:52;;;;;;;3.53;1.60;;;;;;;16.47;100.00;101435.38;5004068;28;21634;-86
2022/06/16 07:41:35;;;;;;;3.90;1.73;;;;;;;16.79;100.00;101428.22;5005502;28;20919;-89
2022/06/16 07:44:05;;;;;;;4.55;1.70;;;;;;;16.88;100.00;101414.56;5003269;28;20442;-87
2022/06/16 07:46:42;;;;;;;3.45;1.65;;;;;;;17.12;100.00;101430.91;5000869;28;20433;-88
2022/06/16 07:49:19;;;;;;;3.50;1.75;;;;;;;16.85;100.00;101426.19;5001131;28;20438;-88
2022/06/16 07:51:47;;;;;;;2.53;1.33;;;;;;;17.07;100.00;101433.75;5003024;28;20435;-86
2022/06/16 07:54:21;;;;;;;2.67;1.38;;;;;;;17.18;100.00;101437.13;5012373;28;20431;-88
2022/06/16 07:56:54;;;;;;;2.85;1.40;;;;;;;16.93;100.00;101447.50;5022446;28;20443;-87
2022/06/16 07:59:22;;;;;;;4.38;1.50;;;;;;;16.88;100.00;101435.75;5007161;28;20430;-89
2022/06/16 08:01:57;;;;;;;3.50;1.23;;;;;;;17.23;100.00;101448.00;5009688;28;20445;-87
2022/06/16 08:04:30;;;;;;;3.67;1.20;;;;;;;17.00;100.00;101439.66;5003880;28;21322;-86
2022/06/16 08:07:04;;;;;;;2.85;1.40;;;;;;;16.93;100.00;101453.00;5008120;28;20981;-88
2022/06/16 08:09:33;;;;;;;3.30;1.38;;;;;;;17.27;100.00;101446.25;5011613;28;20423;-89
2022/06/16 08:12:08;;;;;;;4.18;1.38;;;;;;;17.22;100.00;101448.31;5009470;28;20446;-88
2022/06/16 08:14:39;;;;;;;5.30;1.27;;;;;;;17.56;100.00;101449.81;5005016;28;20883;-87
2022/06/16 08:17:12;;;;;;;2.40;1.20;;;;;;;17.35;100.00;101417.22;5005606;28;20430;-87
2022/06/16 08:19:40;;;;;;;2.40;1.10;;;;;;;17.24;100.00;101446.88;5008589;28;20536;-88
2022/06/16 08:22:09;;;;;;;2.60;1.27;;;;;;;17.63;100.00;101451.00;5005402;28;20435;-87
2022/06/16 08:24:42;;;;;;;3.30;1.20;;;;;;;17.72;100.00;101447.50;5012706;28;20438;-86
2022/06/16 08:27:12;;;;;;;4.28;1.25;;;;;;;17.43;100.00;101440.47;5008120;28;21784;-88
2022/06/16 08:29:46;;;;;;;3.08;1.20;;;;;;;17.60;100.00;101446.13;5008485;28;20449;-86
2022/06/16 08:32:23;;;;;;;4.22;1.30;;;;;;;17.40;100.00;101433.63;5002759;28;20443;-87
2022/06/16 08:34:56;;;;;;;2.88;1.25;;;;;;;17.38;100.00;101441.38;5013980;28;20435;-87
2022/06/16 08:37:29;;;;;;;4.85;1.30;;;;;;;17.70;100.00;101431.31;5001571;28;21096;-86
2022/06/16 08:40:04;;;;;;;5.10;1.45;;;;;;;17.36;100.00;101396.03;4998967;28;20505;-89
2022/06/16 08:42:38;;;;;;;3.42;1.30;;;;;;;17.67;100.00;101443.75;4992927;28;20434;-86
2022/06/16 08:45:14;;;;;;;4.13;1.20;;;;;;;17.29;100.00;101446.78;4998704;28;20419;-87
2022/06/16 08:47:55;;;;;;;2.22;1.00;;;;;;;17.09;100.00;101439.75;4995836;28;20442;-87
2022/06/16 08:50:34;;;;;;;2.35;1.17;;;;;;;16.74;100.00;101427.50;5001139;28;20437;-87
2022/06/16 08:53:18;;;;;;;3.30;1.30;;;;;;;17.13;100.00;101437.22;5000100;28;20423;-88
2022/06/16 08:55:55;;;;;;;3.50;1.30;;;;;;;17.96;100.00;101445.34;4998596;28;20426;-85
2022/06/16 08:58:39;;;;;;;2.97;1.20;;;;;;;17.83;100.00;101415.91;4992120;28;20954;-88
2022/06/16 09:01:14;;;;;;;2.40;1.10;;;;;;;17.11;100.00;101423.78;4999335;28;20887;-86
2022/06/16 09:03:57;;;;;;;3.07;1.30;;;;;;;16.99;100.00;101423.47;5011239;28;20520;-86
2022/06/16 09:06:35;;;;;;;2.50;1.20;;;;;;;17.52;100.00;101424.84;5007599;28;20434;-88
2022/06/16 09:12:25;;;;;;;4.05;1.50;;;;;;;18.27;100.00;101425.31;5011587;28;20446;-89
2022/06/16 09:15:14;;;;;;;3.92;1.42;;;;;;;17.82;100.00;101430.78;5012129;28;20455;-87
2022/06/16 09:18:02;;;;;;;3.25;1.20;;;;;;;17.82;100.00;101442.59;5017439;28;20439;-87
2022/06/16 09:20:45;;;;;;;2.38;1.20;;;;;;;17.98;100.00;101439.50;5001613;28;21744;-87
2022/06/16 09:23:34;;;;;;;4.32;1.50;;;;;;;17.64;100.00;101421.56;4999880;28;20448;-85
2022/06/16 09:26:18;;;;;;;2.78;1.33;;;;;;;18.17;100.00;101442.09;5008399;28;20431;-88
2022/06/16 09:28:52;;;;;;;2.20;1.20;;;;;;;18.07;100.00;101442.34;5003629;28;20435;-87
2022/06/16 09:31:31;;;;;;;2.63;1.20;;;;;;;18.24;100.00;101441.66;5007426;28;20431;-86
2022/06/16 09:34:12;;;;;;;3.05;1.23;;;;;;;18.40;96.92;101448.41;4998973;28;20972;-89
2022/06/16 09:36:56;;;;;;;2.22;1.00;;;;;;;18.82;100.00;101443.47;5001962;28;21475;-89
2022/06/16 09:39:34;;;;;;;3.55;1.10;;;;;;;18.61;100.00;101451.44;4999796;28;20419;-86
2022/06/16 09:45:19;;;;;;;2.95;1.10;;;;;;;18.42;87.73;101442.59;4931028;28;22005;-87
2022/06/16 09:48:00;;;;;;;3.58;1.20;;;;;;;18.38;85.85;101436.06;5000325;28;20438;-86
2022/06/16 09:50:42;;;;;;;2.85;1.05;;;;;;;18.73;88.86;101439.84;5009717;28;20430;-88
2022/06/16 09:53:17;;;;;;;3.50;1.20;;;;;;;18.36;93.96;101439.16;5004060;28;20434;-89
2022/06/16 09:55:55;;;;;;;2.73;1.10;;;;;;;18.81;93.89;101455.63;5003416;28;20908;-87
2022/06/16 09:58:30;;;;;;;2.77;1.10;;;;;;;18.60;92.59;101460.88;5006803;28;21840;-86
2022/06/16 10:01:07;;;;;;;2.53;1.00;;;;;;;18.77;92.96;101464.88;5007772;28;20430;-87
2022/06/16 10:03:53;;;;;;;2.15;1.00;;;;;;;18.72;85.28;101457.53;5007404;28;20450;-86
2022/06/16 10:06:36;;;;;;;1.73;0.90;;;;;;;18.98;92.78;101454.91;5005135;28;20434;-86
2022/06/16 10:09:19;;;;;;;2.10;0.88;;;;;;;19.44;85.77;101450.03;5004140;28;20431;-87
2022/06/16 10:12:01;;;;;;;1.92;0.88;;;;;;;19.26;80.51;101462.16;5001904;28;20442;-87
2022/06/16 10:14:42;;;;;;;2.40;0.80;;;;;;;19.11;78.12;101453.19;5009038;28;21157;-87
2022/06/16 10:17:20;;;;;;;2.08;0.70;;;;;;;19.34;78.51;101453.09;4997029;28;20435;-84
2022/06/16 10:19:55;;;;;;;0.63;0.50;;;;;;;19.56;74.55;101454.13;4998520;28;20435;-88
2022/06/16 10:22:24;;;;;;;0.80;0.43;;;;;;;19.46;70.74;101463.50;5002941;28;20454;-85
2022/06/16 10:25:02;;;;;;;1.05;0.50;;;;;;;19.13;70.70;101455.63;5005099;28;20414;-86
2022/06/16 10:27:41;;;;;;;1.98;0.60;;;;;;;18.79;78.07;101465.34;4998558;28;20452;-85
2022/06/16 10:30:24;;;;;;;1.33;0.50;;;;;;;18.28;73.74;101459.19;5007471;28;20415;-84
2022/06/16 10:33:01;;;;;;;0.50;0.40;;;;;;;18.57;74.14;101457.94;4997031;28;22297;-86
2022/06/16 10:35:29;;;;;;;0.77;0.50;;;;;;;18.83;68.74;101464.38;4997383;28;20839;-84
2022/06/16 10:38:03;;;;;;;0.55;0.50;;;;;;;19.22;67.26;101450.13;5004327;28;20435;-85
2022/06/16 10:40:41;;;;;;;1.27;0.60;;;;;;;19.09;65.95;101446.38;4998049;28;20434;-85
2022/06/16 10:43:17;;;;;;;1.00;0.50;;;;;;;19.12;67.67;101456.75;5003699;28;21781;-85
2022/06/16 10:45:58;;;;;;;0.83;0.60;;;;;;;19.18;71.92;101463.75;5005868;28;20434;-85
2022/06/16 10:48:36;;;;;;;1.50;0.80;;;;;;;19.20;69.38;101467.81;5008628;28;20430;-88
2022/06/16 10:51:13;;;;;;;0.80;0.63;;;;;;;18.97;73.72;101458.00;5009623;28;20427;-88
2022/06/16 10:53:48;;;;;;;1.20;0.70;;;;;;;18.86;73.95;101463.78;5004402;28;20791;-86
2022/06/16 10:56:26;;;;;;;1.73;0.90;;;;;;;19.15;71.51;101481.75;4999395;28;21287;-85
2022/06/16 10:59:01;;;;;;;2.20;0.95;;;;;;;18.93;74.20;101479.06;5001883;28;20443;-87
2022/06/16 11:01:39;;;;;;;1.80;0.70;;;;;;;19.37;72.92;101485.56;5004670;28;20458;-86
2022/06/16 11:04:17;;;;;;;2.15;0.90;;;;;;;19.56;77.13;101495.53;5008273;28;20725;-84
2022/06/16 11:06:54;;;;;;;2.22;0.80;;;;;;;19.85;76.95;101492.19;4999864;28;20438;-85
2022/06/16 11:09:25;;;;;;;1.27;0.68;;;;;;;20.05;69.28;101486.03;5000896;28;20441;-85
2022/06/16 11:12:02;;;;;;;1.65;0.70;;;;;;;19.97;54.67;101492.38;5005949;28;20427;-82
2022/06/16 11:14:41;;;;;;;1.65;0.70;;;;;;;20.36;61.51;101496.09;4999967;28;20453;-85
2022/06/16 11:17:20;;;;;;;3.10;0.90;;;;;;;19.95;65.53;101499.34;5005776;28;20434;-86
2022/06/16 11:20:00;;;;;;;3.33;0.90;;;;;;;20.46;69.13;101491.38;5001433;28;21099;-85
2022/06/16 11:22:38;;;;;;;1.67;0.70;;;;;;;19.58;65.96;101502.34;4997494;28;20434;-86
2022/06/16 11:25:20;;;;;;;2.05;0.90;;;;;;;18.93;70.89;101495.63;5003714;28;20462;-85
2022/06/16 11:28:01;;;;;;;1.88;0.80;;;;;;;18.93;77.50;101503.88;5009424;28;20490;-87
2022/06/16 11:30:37;;;;;;;2.65;0.88;;;;;;;19.49;69.77;101504.28;5006343;28;20422;-85
2022/06/16 11:34:06;;;;;;;2.50;0.80;;;;;;;19.63;64.10;101504.97;4998078;28;20443;-87
2022/06/16 11:36:20;;;;;;;1.67;0.70;;;;;;;19.38;69.90;101501.81;5007345;28;20994;-85
2022/06/16 11:39:02;;;;;;;4.65;1.00;;;;;;;19.00;69.23;101505.06;5000544;28;20774;-86
2022/06/16 11:41:36;;;;;;;2.20;0.80;;;;;;;19.22;73.86;101497.84;5006117;28;20427;-87
2022/06/16 11:44:26;;;;;;;2.37;0.80;;;;;;;19.66;62.46;101492.47;5007120;28;20899;-86
2022/06/16 11:47:05;;;;;;;1.83;0.73;;;;;;;19.87;58.60;101481.63;5017878;28;20450;-84
2022/06/16 11:49:42;;;;;;;1.20;0.60;;;;;;;19.81;68.04;101486.50;5009893;28;20426;-87
2022/06/16 11:52:32;;;;;;;2.03;0.80;;;;;;;19.88;68.36;101497.88;5006270;28;20435;-87
2022/06/16 11:55:27;;;;;;;1.88;0.88;;;;;;;20.28;68.16;101485.84;5002612;28;21269;-87
2022/06/16 11:58:18;;;;;;;1.83;0.80;;;;;;;20.64;65.31;101498.50;5010015;28;20426;-85
2022/06/16 12:00:54;;;;;;;2.28;0.70;;;;;;;20.25;62.61;101488.47;5007204;28;20453;-88
2022/06/16 12:04:09;;;;;;;1.67;0.70;;;;;;;19.54;62.81;101499.44;5005360;28;20441;-87
2022/06/16 12:06:57;;;;;;;2.03;0.80;;;;;;;19.29;68.62;101500.16;4955680;28;20445;-87
2022/06/16 12:09:36;;;;;;;2.05;0.80;;;;;;;19.60;73.69;101502.03;4951017;28;20431;-86
2022/06/16 12:12:07;;;;;;;1.80;0.80;;;;;;;19.82;70.25;101499.19;4991378;28;20431;-87
2022/06/16 12:14:49;;;;;;;1.40;0.73;;;;;;;20.30;73.07;101486.34;5010523;28;20434;-83
2022/06/16 12:17:24;;;;;;;2.03;0.80;;;;;;;20.13;66.15;101478.06;5008220;28;20439;-85
2022/06/16 12:20:03;;;;;;;3.22;0.90;;;;;;;20.41;67.22;101484.06;5011393;28;21028;-88
2022/06/16 12:22:38;;;;;;;2.97;1.25;;;;;;;20.08;68.10;101478.22;5004932;28;20441;-85
2022/06/16 12:25:13;;;;;;;3.80;0.90;;;;;;;20.44;65.94;101486.19;5008210;28;20422;-86
2022/06/16 12:27:55;;;;;;;1.42;0.90;;;;;;;19.94;67.26;101498.56;5003907;28;20950;-83
2022/06/16 12:30:30;;;;;;;4.47;0.88;;;;;;;20.22;71.66;101498.22;5012542;28;20422;-83